Time;durP1;ratioP1;P1;durP2;ratioP2;P2;SDS_P1;SDS_P2;PMS_P1;PMS_P2;Temp;Humidity;BMP_temperature;BMP_pressure;BME280_temperature;BME280_humidity;BME280_pressure;Samples;Min_cycle;Max_cycle;Signal;HPM_P1;HPM_P2
2021/12/01 00:02:19;;;;;;;18.15;10.48;;;9.30;99.90;;;;;;5068329;28;37531;-59
2021/12/01 00:04:46;;;;;;;22.27;12.05;;;9.30;99.90;;;;;;5067559;28;36821;-59
2021/12/01 00:07:14;;;;;;;18.20;11.30;;;9.30;99.90;;;;;;5067475;28;37288;-59
2021/12/01 00:09:41;;;;;;;23.67;12.45;;;9.30;99.90;;;;;;5068465;28;38128;-59
2021/12/01 00:12:11;;;;;;;22.67;12.45;;;9.40;99.90;;;;;;5067797;28;38497;-58
2021/12/01 00:14:38;;;;;;;22.55;12.23;;;9.40;99.90;;;;;;5065714;28;36270;-59
2021/12/01 00:17:10;;;;;;;25.00;13.18;;;9.50;99.90;;;;;;5067569;28;37673;-59
2021/12/01 00:19:38;;;;;;;28.73;14.02;;;9.50;99.90;;;;;;5066569;28;39103;-59
2021/12/01 00:22:06;;;;;;;23.38;15.07;;;9.60;99.90;;;;;;5066887;28;36883;-59
2021/12/01 00:24:34;;;;;;;24.52;14.15;;;9.60;99.90;;;;;;5067838;28;35478;-59
2021/12/01 00:27:01;;;;;;;24.58;14.43;;;9.60;99.90;;;;;;5067479;28;39857;-59
2021/12/01 00:29:31;;;;;;;27.23;15.68;;;9.60;99.90;;;;;;5067400;28;38182;-57
2021/12/01 00:31:58;;;;;;;30.52;15.85;;;9.70;99.90;;;;;;5068488;28;37751;-59
2021/12/01 00:34:26;;;;;;;27.27;15.32;;;9.70;99.90;;;;;;5066566;28;36640;-59
2021/12/01 00:36:54;;;;;;;25.35;16.05;;;9.80;99.90;;;;;;5066901;28;37705;-59
2021/12/01 00:39:21;;;;;;;37.30;17.80;;;9.80;99.90;;;;;;5066476;28;41065;-59
2021/12/01 00:41:50;;;;;;;30.17;17.42;;;9.70;99.90;;;;;;5067775;28;38363;-59
2021/12/01 00:44:17;;;;;;;29.90;17.27;;;9.90;99.90;;;;;;5067688;28;40400;-59
2021/12/01 00:46:54;;;;;;;27.23;15.80;;;9.80;99.90;;;;;;5067090;28;37773;-59
2021/12/01 00:49:22;;;;;;;27.50;17.17;;;9.80;99.90;;;;;;5067194;28;37044;-59
2021/12/01 00:51:50;;;;;;;27.27;16.95;;;9.80;99.90;;;;;;5066767;28;36573;-59
2021/12/01 00:54:18;;;;;;;27.75;16.23;;;9.80;99.90;;;;;;5065913;28;38093;-59
2021/12/01 00:56:46;;;;;;;24.60;16.70;;;9.80;99.90;;;;;;5066541;28;37722;-59
2021/12/01 00:59:14;;;;;;;27.42;16.73;;;9.80;99.90;;;;;;5066201;28;38090;-59
2021/12/01 01:01:41;;;;;;;25.13;15.57;;;9.80;99.90;;;;;;5065557;28;38588;-59
2021/12/01 01:04:10;;;;;;;35.40;16.50;;;9.80;99.90;;;;;;5066226;28;36588;-59
2021/12/01 01:06:38;;;;;;;28.77;14.93;;;9.80;99.90;;;;;;5070004;28;36522;-59
2021/12/01 01:09:07;;;;;;;32.08;14.65;;;9.80;99.90;;;;;;5070780;28;37963;-59
2021/12/01 01:17:07;;;;;;;27.05;14.02;;;9.80;99.90;;;;;;5069338;28;37637;-59
2021/12/01 01:19:39;;;;;;;25.85;13.52;;;9.80;99.90;;;;;;5069865;28;39084;-59
2021/12/01 01:22:08;;;;;;;26.30;11.93;;;9.80;99.90;;;;;;5068430;28;37821;-60
2021/12/01 01:24:37;;;;;;;25.33;12.35;;;9.80;99.90;;;;;;5068394;28;36054;-59
2021/12/01 01:27:05;;;;;;;27.90;12.20;;;9.80;99.90;;;;;;5068086;28;36912;-58
2021/12/01 01:29:36;;;;;;;20.63;10.90;;;9.80;99.90;;;;;;5068509;28;40934;-59
2021/12/01 01:32:05;;;;;;;23.65;10.93;;;9.90;99.90;;;;;;5068951;28;38695;-59
2021/12/01 01:34:34;;;;;;;23.17;10.35;;;9.90;99.90;;;;;;5070770;28;36944;-61
2021/12/01 01:37:02;;;;;;;18.55;9.98;;;9.90;99.90;;;;;;5069905;28;38595;-59
2021/12/01 01:39:30;;;;;;;19.75;9.43;;;9.90;99.90;;;;;;5069956;28;39509;-59
2021/12/01 01:41:58;;;;;;;21.00;10.10;;;9.90;99.90;;;;;;5068210;28;38273;-58
2021/12/01 01:44:27;;;;;;;25.13;10.35;;;9.90;99.90;;;;;;5069868;28;37085;-59
2021/12/01 01:46:55;;;;;;;21.50;8.40;;;10.00;99.90;;;;;;5069822;28;38522;-59
2021/12/01 01:49:34;;;;;;;21.33;9.00;;;10.00;99.90;;;;;;5068949;28;39508;-59
2021/12/01 01:52:03;;;;;;;21.85;7.90;;;10.00;99.90;;;;;;5069247;28;36636;-59
2021/12/01 01:54:31;;;;;;;18.08;7.25;;;10.00;99.90;;;;;;5069170;28;37173;-59
2021/12/01 01:56:58;;;;;;;19.52;6.45;;;10.00;99.90;;;;;;5069947;28;37705;-59
2021/12/01 01:59:26;;;;;;;17.15;5.00;;;9.90;99.90;;;;;;5068710;28;37990;-59
2021/12/01 02:01:56;;;;;;;11.65;4.60;;;10.00;99.90;;;;;;5070106;28;37896;-59
2021/12/01 02:04:25;;;;;;;18.15;4.60;;;10.00;99.90;;;;;;5069436;28;36073;-59
2021/12/01 02:06:53;;;;;;;12.10;4.30;;;10.00;99.90;;;;;;5069944;28;39022;-59
2021/12/01 02:09:23;;;;;;;13.75;4.22;;;10.00;99.90;;;;;;5068430;28;38651;-59
2021/12/01 02:11:54;;;;;;;14.35;3.35;;;10.00;99.90;;;;;;5068442;28;38074;-59
2021/12/01 02:14:22;;;;;;;9.75;2.78;;;10.00;99.90;;;;;;5067852;28;38183;-59
2021/12/01 02:16:50;;;;;;;19.58;4.32;;;10.00;99.90;;;;;;5066893;28;37629;-59
2021/12/01 02:19:18;;;;;;;7.70;2.70;;;10.00;99.90;;;;;;5069925;28;36825;-59
2021/12/01 02:21:47;;;;;;;11.95;2.75;;;10.10;99.90;;;;;;5067167;28;38803;-59
2021/12/01 02:24:16;;;;;;;11.07;2.45;;;10.10;99.90;;;;;;5068437;28;37191;-59
2021/12/01 02:26:46;;;;;;;4.38;1.98;;;10.10;99.90;;;;;;5067367;28;38279;-59
2021/12/01 02:29:16;;;;;;;9.90;2.63;;;10.10;99.90;;;;;;5068600;28;38318;-60
2021/12/01 02:31:44;;;;;;;7.80;1.50;;;10.10;99.90;;;;;;5068677;28;37405;-59
2021/12/01 02:34:18;;;;;;;7.80;1.42;;;10.10;99.90;;;;;;5068516;28;35294;-59
2021/12/01 02:36:49;;;;;;;5.68;1.15;;;10.10;99.90;;;;;;5068883;28;37480;-59
2021/12/01 02:39:17;;;;;;;3.67;1.15;;;10.00;99.90;;;;;;5068794;28;39214;-59
2021/12/01 02:41:46;;;;;;;4.85;1.20;;;10.00;99.90;;;;;;5067346;28;37591;-59
2021/12/01 02:44:17;;;;;;;11.82;1.52;;;10.00;99.90;;;;;;5069361;28;38266;-59
2021/12/01 02:46:45;;;;;;;11.27;1.80;;;10.10;99.90;;;;;;5068354;28;38993;-59
2021/12/01 02:49:13;;;;;;;8.55;1.50;;;10.10;99.90;;;;;;5069044;28;38654;-59
2021/12/01 02:51:41;;;;;;;7.60;2.03;;;10.10;99.90;;;;;;5067912;28;37828;-58
2021/12/01 02:54:10;;;;;;;12.73;2.38;;;10.10;99.90;;;;;;5066741;28;36561;-58
2021/12/01 02:56:38;;;;;;;10.63;1.88;;;10.10;99.90;;;;;;5066861;28;36642;-59
2021/12/01 02:59:07;;;;;;;9.07;1.83;;;10.10;99.90;;;;;;5066204;28;39631;-59
2021/12/01 03:01:35;;;;;;;10.40;2.53;;;10.10;99.90;;;;;;5066607;28;37710;-59
2021/12/01 03:04:02;;;;;;;9.48;2.03;;;10.10;99.90;;;;;;5068252;28;36858;-59
2021/12/01 03:06:31;;;;;;;7.53;1.65;;;10.20;99.90;;;;;;5068634;28;37481;-59
2021/12/01 03:08:58;;;;;;;5.05;1.40;;;10.10;99.90;;;;;;5068748;28;39418;-59
2021/12/01 03:11:27;;;;;;;9.35;1.70;;;10.20;99.90;;;;;;5068861;28;37108;-58
2021/12/01 03:13:55;;;;;;;16.42;1.65;;;10.10;99.90;;;;;;5067357;28;36614;-59
2021/12/01 03:16:23;;;;;;;11.57;1.90;;;10.20;99.90;;;;;;5065198;28;38235;-58
2021/12/01 03:18:51;;;;;;;11.00;1.70;;;10.20;99.90;;;;;;5067076;28;36769;-59
2021/12/01 03:21:19;;;;;;;9.07;1.83;;;10.20;99.90;;;;;;5066755;28;37288;-59
2021/12/01 03:23:46;;;;;;;8.00;1.75;;;10.20;99.90;;;;;;5067432;28;36453;-59
2021/12/01 03:26:15;;;;;;;8.18;1.48;;;10.20;99.90;;;;;;5067830;28;37736;-58
2021/12/01 03:28:44;;;;;;;8.70;1.92;;;10.20;99.90;;;;;;5067738;28;40196;-59
2021/12/01 03:31:11;;;;;;;9.65;1.48;;;10.20;99.90;;;;;;5067759;28;37715;-59
2021/12/01 03:33:39;;;;;;;8.95;1.65;;;10.20;99.90;;;;;;5067222;28;35496;-59
2021/12/01 03:36:06;;;;;;;13.35;2.83;;;10.20;99.90;;;;;;5067021;28;40031;-59
2021/12/01 03:38:34;;;;;;;13.13;2.20;;;10.20;99.90;;;;;;5066125;28;38323;-59
2021/12/01 03:41:01;;;;;;;16.15;2.53;;;10.20;99.90;;;;;;5067528;28;37895;-58
2021/12/01 03:43:29;;;;;;;17.77;2.63;;;10.20;99.90;;;;;;5066131;28;36683;-59
2021/12/01 03:45:58;;;;;;;17.45;2.70;;;10.20;99.90;;;;;;5067098;28;37642;-58
2021/12/01 03:48:25;;;;;;;16.10;3.25;;;10.20;99.90;;;;;;5067044;28;38930;-56
2021/12/01 03:50:54;;;;;;;17.98;2.72;;;10.20;99.90;;;;;;5067658;28;38366;-56
2021/12/01 03:53:23;;;;;;;18.30;3.20;;;10.20;99.90;;;;;;5066966;28;37843;-56
2021/12/01 03:55:51;;;;;;;16.75;2.47;;;10.20;99.90;;;;;;5068392;28;37732;-55
2021/12/01 03:58:19;;;;;;;13.60;3.08;;;10.20;99.90;;;;;;5067456;28;38773;-55
2021/12/01 04:00:48;;;;;;;15.90;2.97;;;10.20;99.90;;;;;;5067620;28;37667;-55
2021/12/01 04:03:17;;;;;;;18.85;3.28;;;10.20;99.90;;;;;;5065992;28;36989;-56
2021/12/01 04:05:44;;;;;;;15.95;2.72;;;10.20;99.90;;;;;;5067544;28;37379;-55
2021/12/01 04:08:12;;;;;;;19.45;2.90;;;10.10;99.90;;;;;;5066468;28;38015;-55
2021/12/01 04:10:40;;;;;;;17.83;2.60;;;10.10;99.90;;;;;;5067929;28;37588;-56
2021/12/01 04:13:07;;;;;;;17.02;2.80;;;10.10;99.90;;;;;;5066851;28;36785;-55
2021/12/01 04:15:35;;;;;;;16.70;2.50;;;10.10;99.90;;;;;;5067332;28;37800;-55
2021/12/01 04:18:05;;;;;;;15.02;1.90;;;10.10;99.90;;;;;;5065597;28;36958;-56
2021/12/01 04:20:34;;;;;;;12.25;2.00;;;10.10;99.90;;;;;;5067078;28;37689;-56
2021/12/01 04:23:01;;;;;;;18.98;3.28;;;10.00;99.90;;;;;;5064884;28;36674;-56
2021/12/01 04:25:29;;;;;;;14.27;2.28;;;10.00;99.90;;;;;;5066995;28;37852;-55
2021/12/01 04:27:56;;;;;;;14.00;2.47;;;10.00;99.90;;;;;;5064859;28;37787;-56
2021/12/01 04:30:25;;;;;;;14.02;2.30;;;10.00;99.90;;;;;;5066348;28;38015;-55
2021/12/01 04:32:54;;;;;;;11.88;2.20;;;10.00;99.90;;;;;;5065482;28;36324;-56
2021/12/01 04:35:24;;;;;;;15.43;2.72;;;10.00;99.90;;;;;;5066198;28;36200;-56
2021/12/01 04:37:53;;;;;;;14.00;1.83;;;10.00;99.90;;;;;;5065753;28;39821;-56
2021/12/01 04:45:36;;;;;;;8.77;1.80;;;10.00;99.90;;;;;;5573403;22;20059;-58
2021/12/01 04:51:06;;;;;;;7.30;1.92;;;10.00;99.90;;;;;;4902636;26;20049;-55
2021/12/01 04:58:48;;;;;;;6.53;1.60;;;10.00;99.90;;;;;;4995991;28;20055;-58
2021/12/01 05:01:16;;;;;;;7.05;1.88;;;10.00;99.90;;;;;;4993313;28;36186;-57
2021/12/01 05:03:43;;;;;;;6.80;1.83;;;10.00;99.90;;;;;;4991872;28;36703;-58
2021/12/01 05:06:12;;;;;;;3.97;2.05;;;9.90;99.90;;;;;;4990998;28;37946;-58
2021/12/01 05:08:39;;;;;;;7.13;2.03;;;9.90;99.90;;;;;;4991753;28;38374;-58
2021/12/01 05:11:07;;;;;;;6.85;2.17;;;9.90;99.90;;;;;;4994423;28;36923;-59
2021/12/01 05:13:34;;;;;;;5.15;1.67;;;9.90;99.90;;;;;;4993516;28;38229;-58
2021/12/01 05:16:03;;;;;;;6.35;2.00;;;9.90;99.90;;;;;;4992175;28;37646;-58
2021/12/01 05:18:31;;;;;;;5.13;1.55;;;9.90;99.90;;;;;;4995084;28;38885;-58
2021/12/01 05:20:58;;;;;;;3.67;1.45;;;9.90;99.90;;;;;;4995155;28;37637;-58
2021/12/01 05:23:26;;;;;;;3.15;1.45;;;9.90;99.90;;;;;;4993088;28;37112;-58
2021/12/01 05:25:53;;;;;;;3.22;1.42;;;9.90;99.90;;;;;;4994620;28;40370;-57
2021/12/01 05:28:20;;;;;;;1.80;0.93;;;9.80;99.90;;;;;;4995312;28;36772;-58
2021/12/01 05:30:48;;;;;;;3.42;1.17;;;9.80;99.90;;;;;;4993363;28;38369;-58
2021/12/01 05:33:17;;;;;;;1.48;0.90;;;9.80;99.90;;;;;;4993236;28;36399;-58
2021/12/01 05:35:46;;;;;;;1.25;0.77;;;9.80;99.90;;;;;;4993520;28;38127;-58
2021/12/01 05:38:14;;;;;;;3.03;0.90;;;9.70;99.90;;;;;;4994486;28;38756;-58
2021/12/01 05:40:42;;;;;;;1.58;0.80;;;9.80;99.90;;;;;;4992866;28;37630;-58
2021/12/01 05:43:09;;;;;;;2.13;0.77;;;9.70;99.90;;;;;;4995009;28;37499;-58
2021/12/01 05:45:38;;;;;;;1.05;0.77;;;9.70;99.90;;;;;;4995697;28;36198;-58
2021/12/01 05:48:06;;;;;;;1.52;0.77;;;9.70;99.90;;;;;;4996900;28;36747;-57
2021/12/01 05:50:34;;;;;;;5.78;1.00;;;9.70;99.90;;;;;;4999790;28;40184;-58
2021/12/01 05:53:02;;;;;;;2.60;1.10;;;9.70;99.90;;;;;;4999258;28;36401;-58
2021/12/01 05:55:29;;;;;;;2.28;1.20;;;9.70;99.90;;;;;;5001258;28;38459;-59
2021/12/01 05:57:57;;;;;;;3.33;1.45;;;9.70;99.90;;;;;;4999377;28;37780;-58
2021/12/01 06:00:24;;;;;;;3.50;1.55;;;9.60;99.90;;;;;;4999212;28;39102;-58
2021/12/01 06:02:52;;;;;;;2.55;1.25;;;9.60;99.90;;;;;;4999164;28;36473;-59
2021/12/01 06:05:21;;;;;;;3.72;1.60;;;9.60;99.90;;;;;;5000286;28;39112;-57
2021/12/01 06:07:50;;;;;;;4.88;2.00;;;9.60;99.90;;;;;;4999352;28;38770;-59
2021/12/01 06:10:18;;;;;;;3.63;2.00;;;9.60;99.90;;;;;;4999672;28;38256;-59
2021/12/01 06:12:47;;;;;;;3.15;1.98;;;9.60;99.90;;;;;;4997957;28;37266;-58
2021/12/01 06:15:17;;;;;;;5.28;2.00;;;9.50;99.90;;;;;;4998887;28;38488;-59
2021/12/01 06:17:45;;;;;;;5.97;2.60;;;9.60;99.90;;;;;;4998984;28;39793;-59
2021/12/01 06:20:14;;;;;;;5.38;2.30;;;9.60;99.90;;;;;;4999247;28;36649;-59
2021/12/01 06:22:42;;;;;;;4.45;2.65;;;9.60;99.90;;;;;;4998516;28;37219;-59
2021/12/01 06:25:12;;;;;;;5.47;2.30;;;9.50;99.90;;;;;;5002085;28;37463;-59
2021/12/01 06:27:42;;;;;;;4.00;2.13;;;9.50;99.90;;;;;;5000466;28;38067;-59
2021/12/01 06:30:11;;;;;;;5.78;2.20;;;9.50;99.90;;;;;;5001913;28;37919;-59
2021/12/01 06:32:38;;;;;;;3.72;1.95;;;9.50;99.90;;;;;;5001444;28;35482;-59
2021/12/01 06:35:07;;;;;;;4.72;1.85;;;9.50;99.90;;;;;;5000820;28;36005;-58
2021/12/01 06:37:34;;;;;;;4.90;2.00;;;9.50;99.90;;;;;;4998902;28;37543;-59
2021/12/01 06:40:02;;;;;;;3.95;1.90;;;9.50;99.90;;;;;;4999631;28;37597;-59
2021/12/01 06:42:30;;;;;;;3.47;1.90;;;9.50;99.90;;;;;;4999242;28;35126;-59
2021/12/01 06:44:58;;;;;;;3.75;1.42;;;9.40;99.90;;;;;;4999187;28;37533;-58
2021/12/01 06:47:25;;;;;;;3.33;1.40;;;9.50;99.90;;;;;;4999405;28;38628;-59
2021/12/01 06:49:53;;;;;;;2.33;1.30;;;9.40;99.90;;;;;;5000888;28;37068;-59
2021/12/01 06:52:21;;;;;;;2.95;1.30;;;9.40;99.90;;;;;;5001675;28;36588;-58
2021/12/01 06:54:48;;;;;;;6.82;1.83;;;9.40;99.90;;;;;;5001478;28;36209;-58
2021/12/01 06:57:16;;;;;;;5.35;1.50;;;9.40;99.90;;;;;;4999508;28;39126;-58
2021/12/01 06:59:45;;;;;;;3.85;1.48;;;9.40;99.90;;;;;;5000185;28;38088;-58
2021/12/01 07:02:12;;;;;;;3.78;1.38;;;9.40;99.90;;;;;;5000930;28;36862;-58
2021/12/01 07:04:39;;;;;;;4.95;1.50;;;9.40;99.90;;;;;;5000922;28;38311;-59
2021/12/01 07:07:07;;;;;;;2.95;1.58;;;9.40;99.90;;;;;;5000151;28;38235;-58
2021/12/01 07:09:34;;;;;;;3.63;1.88;;;9.40;99.90;;;;;;5000272;28;38109;-58
2021/12/01 07:12:02;;;;;;;4.18;2.15;;;9.40;99.90;;;;;;5000513;28;35409;-58
2021/12/01 07:14:29;;;;;;;5.63;2.20;;;9.40;99.90;;;;;;4999834;28;37196;-58
2021/12/01 07:16:58;;;;;;;3.58;2.10;;;9.40;99.90;;;;;;4998438;28;38202;-58
2021/12/01 07:19:26;;;;;;;4.07;2.50;;;9.40;99.90;;;;;;4996297;28;38133;-59
2021/12/01 07:21:53;;;;;;;6.18;2.35;;;9.40;99.90;;;;;;4997724;28;36560;-55
2021/12/01 07:24:21;;;;;;;4.90;2.38;;;9.40;99.90;;;;;;4999484;28;37556;-56
2021/12/01 07:26:48;;;;;;;4.72;2.13;;;9.40;99.90;;;;;;5000275;28;39010;-55
2021/12/01 07:29:17;;;;;;;5.35;2.42;;;9.40;99.90;;;;;;4998544;28;40483;-55
2021/12/01 07:31:46;;;;;;;6.53;2.92;;;9.40;99.90;;;;;;5000267;28;36793;-56
2021/12/01 07:34:15;;;;;;;6.32;2.80;;;9.40;99.90;;;;;;4998556;28;38280;-55
2021/12/01 07:36:42;;;;;;;6.25;2.80;;;9.40;99.90;;;;;;4999698;28;40204;-55
2021/12/01 07:39:10;;;;;;;5.93;2.55;;;9.50;99.90;;;;;;4998328;28;38219;-56
2021/12/01 07:41:37;;;;;;;5.40;2.60;;;9.50;99.90;;;;;;4999788;28;37680;-55
2021/12/01 07:44:05;;;;;;;7.85;3.30;;;9.50;99.90;;;;;;4999333;28;37705;-55
2021/12/01 07:46:32;;;;;;;11.40;2.97;;;9.50;99.90;;;;;;4999856;28;37947;-55
2021/12/01 07:49:00;;;;;;;6.88;2.80;;;9.50;99.90;;;;;;4999519;28;37821;-56
2021/12/01 07:51:28;;;;;;;7.45;3.33;;;9.50;99.90;;;;;;4998948;28;36819;-55
2021/12/01 07:53:56;;;;;;;13.95;4.00;;;9.50;99.90;;;;;;4999054;28;38834;-55
2021/12/01 07:56:25;;;;;;;7.85;3.38;;;9.50;99.90;;;;;;4998886;28;38296;-55
2021/12/01 07:58:52;;;;;;;7.68;3.03;;;9.60;99.90;;;;;;4997219;28;37870;-55
2021/12/01 08:01:20;;;;;;;11.88;3.25;;;9.60;99.90;;;;;;4999389;28;36997;-55
2021/12/01 08:03:47;;;;;;;11.05;3.97;;;9.60;99.90;;;;;;4999225;28;36542;-55
2021/12/01 08:06:14;;;;;;;14.02;3.33;;;9.60;99.90;;;;;;4997225;28;38242;-55
2021/12/01 08:08:43;;;;;;;7.88;3.47;;;9.60;99.90;;;;;;4996626;28;39045;-55
2021/12/01 08:11:10;;;;;;;6.80;2.90;;;9.60;99.90;;;;;;4995784;28;37835;-55
2021/12/01 08:13:38;;;;;;;10.07;2.97;;;9.60;99.90;;;;;;4995594;28;36024;-55
2021/12/01 08:16:06;;;;;;;7.47;2.88;;;9.60;99.90;;;;;;4998804;28;39141;-55
2021/12/01 08:18:34;;;;;;;6.60;3.00;;;9.60;99.90;;;;;;4997896;28;38295;-55
2021/12/01 08:21:01;;;;;;;9.40;2.65;;;9.60;99.90;;;;;;4999158;28;36868;-55
2021/12/01 08:23:29;;;;;;;7.50;3.00;;;9.60;99.90;;;;;;4997762;28;37340;-55
2021/12/01 08:25:58;;;;;;;7.57;3.45;;;9.60;99.90;;;;;;4999280;28;38509;-54
2021/12/01 08:28:25;;;;;;;7.05;2.83;;;9.60;99.90;;;;;;4998947;28;37885;-58
2021/12/01 08:30:53;;;;;;;9.63;2.60;;;9.60;99.90;;;;;;4999055;28;36402;-55
2021/12/01 08:33:20;;;;;;;5.63;2.13;;;9.60;99.90;;;;;;4997866;28;38672;-55
2021/12/01 08:35:48;;;;;;;5.95;1.98;;;9.60;99.90;;;;;;4998963;28;38363;-55
2021/12/01 08:38:15;;;;;;;9.35;1.90;;;9.60;99.90;;;;;;4998321;28;37607;-55
2021/12/01 08:40:43;;;;;;;8.25;1.73;;;9.60;99.90;;;;;;4997587;28;36031;-55
2021/12/01 08:43:12;;;;;;;11.63;1.83;;;9.50;99.70;;;;;;4998167;28;38623;-55
2021/12/01 08:45:39;;;;;;;10.00;2.15;;;9.50;99.60;;;;;;4997457;28;38255;-55
2021/12/01 08:48:06;;;;;;;8.02;1.65;;;9.50;99.90;;;;;;4997551;28;38201;-55
2021/12/01 08:50:35;;;;;;;15.75;3.00;;;9.50;99.50;;;;;;4998991;28;36003;-55
2021/12/01 08:53:02;;;;;;;7.30;1.77;;;9.50;99.40;;;;;;4998774;28;37359;-55
2021/12/01 08:55:30;;;;;;;13.63;2.30;;;9.50;99.10;;;;;;4997749;28;38994;-55
2021/12/01 08:57:57;;;;;;;12.32;1.75;;;9.50;99.00;;;;;;4996682;28;38783;-55
2021/12/01 09:00:27;;;;;;;20.38;2.72;;;9.40;98.90;;;;;;4999051;28;36769;-55
2021/12/01 09:02:54;;;;;;;10.45;1.98;;;9.40;99.00;;;;;;4998769;28;37363;-55
2021/12/01 09:05:22;;;;;;;11.15;2.08;;;9.50;98.70;;;;;;4998435;28;38460;-55
2021/12/01 09:07:49;;;;;;;10.30;1.67;;;9.40;98.70;;;;;;4998286;28;39887;-55
2021/12/01 09:10:17;;;;;;;11.27;1.52;;;9.40;98.60;;;;;;4998589;28;35588;-55
2021/12/01 09:12:44;;;;;;;10.73;1.98;;;9.40;98.70;;;;;;4998211;28;36876;-55
2021/12/01 09:15:13;;;;;;;9.77;1.65;;;9.30;98.60;;;;;;4998117;28;38372;-55
2021/12/01 09:17:42;;;;;;;9.23;1.63;;;9.30;98.80;;;;;;4997956;28;37456;-55
2021/12/01 09:20:11;;;;;;;10.90;1.55;;;9.40;98.80;;;;;;4998767;28;35305;-55
2021/12/01 09:22:38;;;;;;;10.77;1.58;;;9.40;98.70;;;;;;4997707;28;36230;-55
2021/12/01 09:25:07;;;;;;;7.43;1.20;;;9.30;98.60;;;;;;4995836;28;37523;-55
2021/12/01 09:27:34;;;;;;;10.63;1.50;;;9.30;98.70;;;;;;5000641;28;38419;-55
2021/12/01 09:30:02;;;;;;;8.20;1.50;;;9.30;98.80;;;;;;5000754;28;37129;-55
2021/12/01 09:32:30;;;;;;;9.85;1.27;;;9.30;98.80;;;;;;5001419;28;37653;-55
2021/12/01 09:34:58;;;;;;;9.63;1.50;;;9.40;98.80;;;;;;5000643;28;37865;-55
2021/12/01 09:37:26;;;;;;;11.00;1.40;;;9.30;98.90;;;;;;5001317;28;38458;-55
2021/12/01 09:39:54;;;;;;;9.20;1.67;;;9.30;98.80;;;;;;5000176;28;36053;-55
2021/12/01 09:42:22;;;;;;;13.27;1.67;;;9.30;98.80;;;;;;5000321;28;38511;-55
2021/12/01 09:44:51;;;;;;;10.15;1.80;;;9.30;98.60;;;;;;5000066;28;38045;-55
2021/12/01 09:47:20;;;;;;;9.45;1.50;;;9.30;98.70;;;;;;5000120;28;37770;-55
2021/12/01 09:49:47;;;;;;;12.40;1.77;;;9.20;98.80;;;;;;5000763;28;36488;-55
2021/12/01 09:52:16;;;;;;;6.28;1.00;;;9.20;98.90;;;;;;5000476;28;38911;-55
2021/12/01 09:54:44;;;;;;;9.45;1.23;;;9.20;98.90;;;;;;5000123;28;38882;-55
2021/12/01 09:57:14;;;;;;;12.13;1.70;;;9.30;99.00;;;;;;4999221;28;38433;-55
2021/12/01 09:59:42;;;;;;;12.38;2.22;;;9.30;98.90;;;;;;5000986;28;37762;-55
2021/12/01 10:02:11;;;;;;;10.90;1.55;;;9.40;98.90;;;;;;4999858;28;38377;-55
2021/12/01 10:04:38;;;;;;;14.57;2.30;;;9.40;98.90;;;;;;4999966;28;40079;-55
2021/12/01 10:07:14;;;;;;;11.35;1.83;;;9.40;98.70;;;;;;5000276;28;38285;-55
2021/12/01 10:09:45;;;;;;;14.57;2.10;;;9.40;98.50;;;;;;5001142;28;37125;-55
2021/12/01 10:12:14;;;;;;;11.77;2.05;;;9.60;98.60;;;;;;5001133;28;38278;-55
2021/12/01 10:14:45;;;;;;;13.63;2.13;;;9.80;98.40;;;;;;5000668;28;38307;-55
2021/12/01 10:17:13;;;;;;;14.95;2.72;;;9.70;98.10;;;;;;4997031;28;38382;-55
2021/12/01 10:19:41;;;;;;;20.92;2.83;;;9.80;98.00;;;;;;4997217;28;37584;-55
2021/12/01 10:22:10;;;;;;;16.95;2.55;;;9.70;98.00;;;;;;4999711;28;37460;-55
2021/12/01 10:24:39;;;;;;;16.92;3.15;;;9.70;98.10;;;;;;4998559;28;38569;-56
2021/12/01 10:27:13;;;;;;;20.17;3.08;;;9.60;98.10;;;;;;4999708;28;37840;-55
2021/12/01 10:29:43;;;;;;;17.30;3.03;;;9.60;98.10;;;;;;4997462;28;37397;-55
2021/12/01 10:32:17;;;;;;;21.67;3.17;;;9.60;98.10;;;;;;5000105;28;36190;-55
2021/12/01 10:34:47;;;;;;;19.80;2.83;;;9.50;98.20;;;;;;4997915;28;38346;-55
2021/12/01 10:37:22;;;;;;;15.05;2.55;;;9.50;98.20;;;;;;4998727;28;38269;-55
2021/12/01 10:40:03;;;;;;;19.17;3.38;;;9.50;98.20;;;;;;4997387;28;36899;-55
2021/12/01 10:42:32;;;;;;;18.85;2.42;;;9.40;98.30;;;;;;4999749;28;37456;-55
2021/12/01 10:45:01;;;;;;;18.85;3.47;;;9.30;98.40;;;;;;4997936;28;38452;-56
2021/12/01 10:47:40;;;;;;;18.60;3.38;;;9.20;98.40;;;;;;4999474;28;40118;-55
2021/12/01 10:50:08;;;;;;;14.90;2.55;;;9.40;98.40;;;;;;4998020;28;36927;-55
2021/12/01 10:52:39;;;;;;;13.18;2.00;;;9.30;98.50;;;;;;4998460;28;39250;-56
2021/12/01 10:55:10;;;;;;;11.68;1.90;;;9.40;98.60;;;;;;4998094;28;36848;-55
2021/12/01 10:57:41;;;;;;;22.00;2.67;;;9.40;98.20;;;;;;4997873;28;38305;-55
2021/12/01 11:00:18;;;;;;;11.88;2.00;;;9.50;98.20;;;;;;4999252;28;37780;-55
2021/12/01 11:02:46;;;;;;;9.48;1.80;;;9.60;98.00;;;;;;4999707;28;38800;-55
2021/12/01 11:05:27;;;;;;;9.95;2.25;;;9.60;97.50;;;;;;4998083;28;38061;-55
2021/12/01 11:07:55;;;;;;;8.10;1.75;;;9.50;97.20;;;;;;4998620;28;38276;-55
2021/12/01 11:10:25;;;;;;;11.57;1.80;;;9.50;97.30;;;;;;4997953;28;35909;-55
2021/12/01 11:12:59;;;;;;;14.90;2.25;;;9.50;97.20;;;;;;4997410;28;38018;-55
2021/12/01 11:15:30;;;;;;;13.40;2.25;;;9.40;97.40;;;;;;4996155;28;38955;-55
2021/12/01 11:17:59;;;;;;;15.90;2.78;;;9.40;97.40;;;;;;4996883;28;39497;-55
2021/12/01 11:20:40;;;;;;;16.58;2.83;;;9.40;97.40;;;;;;4998385;28;36574;-55
2021/12/01 11:23:14;;;;;;;20.67;2.97;;;9.60;97.40;;;;;;5000131;28;37417;-55
2021/12/01 11:25:42;;;;;;;15.00;2.35;;;9.50;97.50;;;;;;4999851;28;39168;-55
2021/12/01 11:28:14;;;;;;;21.20;4.22;;;9.40;97.30;;;;;;4999853;28;38251;-55
2021/12/01 11:30:43;;;;;;;10.80;2.08;;;9.40;97.00;;;;;;4999655;28;35931;-55
2021/12/01 11:33:13;;;;;;;17.02;3.33;;;9.40;96.90;;;;;;5000348;28;38853;-55
2021/12/01 11:35:42;;;;;;;19.92;3.95;;;9.40;96.90;;;;;;4999312;28;38872;-55
2021/12/01 11:38:10;;;;;;;21.15;3.53;;;9.40;96.90;;;;;;4998891;28;38408;-55
2021/12/01 11:40:38;;;;;;;20.80;3.60;;;9.40;96.50;;;;;;4999905;28;36541;-55
2021/12/01 11:43:09;;;;;;;22.10;3.63;;;9.30;96.10;;;;;;5000158;28;36311;-55
2021/12/01 11:45:39;;;;;;;21.08;4.45;;;9.30;95.80;;;;;;5000215;28;38309;-55
2021/12/01 11:48:10;;;;;;;16.02;3.75;;;9.20;95.90;;;;;;5000131;28;37668;-55
2021/12/01 11:50:50;;;;;;;17.67;3.30;;;9.10;95.80;;;;;;5000600;28;35972;-55
2021/12/01 11:53:21;;;;;;;19.88;3.53;;;9.10;95.30;;;;;;4999078;28;38063;-55
2021/12/01 11:55:56;;;;;;;21.58;3.72;;;9.00;94.80;;;;;;5001267;28;38326;-56
2021/12/01 11:58:59;;;;;;;26.17;4.45;;;9.00;94.70;;;;;;4999414;28;37403;-55
2021/12/01 12:01:37;;;;;;;22.65;3.40;;;8.90;94.40;;;;;;5000767;28;36689;-55
2021/12/01 12:04:27;;;;;;;18.17;3.42;;;8.90;94.50;;;;;;4999870;28;37555;-55
2021/12/01 12:07:01;;;;;;;15.27;3.10;;;8.90;93.50;;;;;;4999370;28;38154;-55
2021/12/01 12:09:30;;;;;;;18.52;3.20;;;8.90;94.20;;;;;;4998223;28;37667;-55
2021/12/01 12:12:12;;;;;;;19.15;2.97;;;8.90;94.30;;;;;;4999189;28;36401;-55
2021/12/01 12:14:49;;;;;;;20.73;3.10;;;8.90;93.90;;;;;;4999470;28;36134;-55
2021/12/01 12:17:21;;;;;;;14.43;2.70;;;8.90;93.70;;;;;;4999922;28;36953;-55
2021/12/01 12:19:59;;;;;;;16.50;3.00;;;8.90;93.70;;;;;;4999325;28;37972;-55
2021/12/01 12:22:34;;;;;;;20.92;3.83;;;8.90;93.40;;;;;;4998751;28;35260;-55
2021/12/01 12:25:02;;;;;;;15.90;2.72;;;8.90;93.80;;;;;;4997891;28;37533;-55
2021/12/01 12:27:39;;;;;;;18.85;3.60;;;8.90;93.60;;;;;;4998446;28;40357;-56
2021/12/01 12:30:14;;;;;;;11.82;2.65;;;8.80;93.40;;;;;;4999155;28;38803;-55
2021/12/01 12:32:46;;;;;;;12.75;2.58;;;8.90;93.40;;;;;;4997316;28;35463;-61
2021/12/01 12:35:16;;;;;;;15.52;2.63;;;8.90;93.40;;;;;;4997491;28;38441;-59
2021/12/01 12:37:44;;;;;;;15.98;3.03;;;8.90;93.40;;;;;;4997502;28;38082;-59
2021/12/01 12:40:32;;;;;;;10.10;2.03;;;8.90;93.40;;;;;;4996635;28;37745;-59
2021/12/01 12:43:07;;;;;;;11.82;2.65;;;8.90;92.70;;;;;;4997912;28;35196;-60
2021/12/01 12:45:36;;;;;;;17.25;2.38;;;9.00;93.30;;;;;;4997558;28;38012;-62
2021/12/01 12:48:24;;;;;;;13.30;2.55;;;8.90;93.20;;;;;;4996840;28;38030;-60
2021/12/01 12:51:15;;;;;;;11.75;1.95;;;8.90;93.20;;;;;;4999342;28;37391;-60
2021/12/01 12:54:19;;;;;;;15.68;2.08;;;8.90;92.90;;;;;;4996749;28;37817;-60
2021/12/01 12:56:50;;;;;;;12.80;2.60;;;8.90;93.20;;;;;;4991037;28;36191;-60
2021/12/01 12:59:20;;;;;;;13.65;2.40;;;8.80;93.50;;;;;;4999279;28;40837;-60
2021/12/01 13:01:48;;;;;;;12.65;2.38;;;8.80;93.40;;;;;;5002875;28;38741;-59
2021/12/01 13:04:58;;;;;;;13.95;3.20;;;8.70;93.50;;;;;;5003916;28;36364;-60
2021/12/01 13:07:44;;;;;;;13.30;2.55;;;8.70;93.10;;;;;;5001101;28;38716;-60
2021/12/01 13:10:23;;;;;;;12.90;2.53;;;8.70;93.20;;;;;;5003436;28;38899;-60
2021/12/01 13:13:03;;;;;;;20.60;3.63;;;8.70;93.20;;;;;;5002269;28;37663;-61
2021/12/01 13:15:37;;;;;;;15.25;2.00;;;8.70;93.10;;;;;;5002695;28;34352;-60
2021/12/01 13:18:07;;;;;;;11.25;2.13;;;8.60;93.30;;;;;;5002215;28;37850;-60
2021/12/01 13:20:37;;;;;;;12.50;2.00;;;8.60;93.00;;;;;;5002081;28;38971;-60